sensor_id;sensor_type;location;lat;lon;timestamp;P1;durP1;ratioP1;P2;durP2;ratioP2
18001;SDS011;9126;48.160;17.130;2022-07-11T00:00:19;2.75;;;1.05;;
18001;SDS011;9126;48.160;17.130;2022-07-11T00:02:46;1.27;;;0.70;;
18001;SDS011;9126;48.160;17.130;2022-07-11T00:05:14;1.67;;;0.65;;
18001;SDS011;9126;48.160;17.130;2022-07-11T00:07:41;2.50;;;0.90;;
18001;SDS011;9126;48.160;17.130;2022-07-11T00:10:09;1.67;;;0.90;;
18001;SDS011;9126;48.160;17.130;2022-07-11T00:12:37;0.60;;;0.60;;
18001;SDS011;9126;48.160;17.130;2022-07-11T00:15:04;3.70;;;0.90;;
18001;SDS011;9126;48.160;17.130;2022-07-11T00:17:32;1.42;;;0.80;;
18001;SDS011;9126;48.160;17.130;2022-07-11T00:20:00;1.08;;;0.90;;
18001;SDS011;9126;48.160;17.130;2022-07-11T00:22:28;1.17;;;0.80;;
18001;SDS011;9126;48.160;17.130;2022-07-11T00:24:55;1.40;;;0.77;;
18001;SDS011;9126;48.160;17.130;2022-07-11T00:27:22;1.75;;;0.73;;
18001;SDS011;9126;48.160;17.130;2022-07-11T00:29:52;1.85;;;0.77;;
18001;SDS011;9126;48.160;17.130;2022-07-11T00:32:19;2.55;;;0.80;;
18001;SDS011;9126;48.160;17.130;2022-07-11T00:34:50;1.90;;;0.75;;
18001;SDS011;9126;48.160;17.130;2022-07-11T00:37:17;2.95;;;0.80;;
18001;SDS011;9126;48.160;17.130;2022-07-11T00:39:44;3.40;;;0.95;;
18001;SDS011;9126;48.160;17.130;2022-07-11T00:42:11;1.83;;;0.90;;
18001;SDS011;9126;48.160;17.130;2022-07-11T00:44:42;0.88;;;0.68;;
18001;SDS011;9126;48.160;17.130;2022-07-11T00:47:11;1.52;;;0.80;;
18001;SDS011;9126;48.160;17.130;2022-07-11T00:49:38;1.63;;;0.88;;
18001;SDS011;9126;48.160;17.130;2022-07-11T00:52:06;1.58;;;0.70;;
18001;SDS011;9126;48.160;17.130;2022-07-11T00:54:33;1.25;;;0.80;;
18001;SDS011;9126;48.160;17.130;2022-07-11T00:57:00;3.10;;;1.10;;
18001;SDS011;9126;48.160;17.130;2022-07-11T00:59:27;1.35;;;0.90;;
18001;SDS011;9126;48.160;17.130;2022-07-11T01:01:56;1.80;;;0.77;;
18001;SDS011;9126;48.160;17.130;2022-07-11T01:04:25;1.33;;;0.80;;
18001;SDS011;9126;48.160;17.130;2022-07-11T01:06:53;4.45;;;1.00;;
18001;SDS011;9126;48.160;17.130;2022-07-11T01:09:20;3.35;;;1.15;;
18001;SDS011;9126;48.160;17.130;2022-07-11T01:11:47;1.63;;;1.08;;
18001;SDS011;9126;48.160;17.130;2022-07-11T01:14:14;2.50;;;1.02;;
18001;SDS011;9126;48.160;17.130;2022-07-11T01:16:42;2.17;;;1.08;;
18001;SDS011;9126;48.160;17.130;2022-07-11T01:19:10;1.40;;;0.93;;
18001;SDS011;9126;48.160;17.130;2022-07-11T01:21:39;1.95;;;0.85;;
18001;SDS011;9126;48.160;17.130;2022-07-11T01:24:12;0.90;;;0.75;;
18001;SDS011;9126;48.160;17.130;2022-07-11T01:26:39;2.22;;;1.10;;
18001;SDS011;9126;48.160;17.130;2022-07-11T01:29:08;3.10;;;0.90;;
18001;SDS011;9126;48.160;17.130;2022-07-11T01:31:37;2.72;;;1.05;;
18001;SDS011;9126;48.160;17.130;2022-07-11T01:34:05;0.95;;;0.63;;
18001;SDS011;9126;48.160;17.130;2022-07-11T01:36:32;3.20;;;0.98;;
18001;SDS011;9126;48.160;17.130;2022-07-11T01:38:59;2.05;;;0.73;;
18001;SDS011;9126;48.160;17.130;2022-07-11T01:41:28;3.03;;;1.00;;
18001;SDS011;9126;48.160;17.130;2022-07-11T01:43:55;2.27;;;0.90;;
18001;SDS011;9126;48.160;17.130;2022-07-11T01:46:22;4.45;;;1.13;;
18001;SDS011;9126;48.160;17.130;2022-07-11T01:48:50;2.05;;;1.13;;
18001;SDS011;9126;48.160;17.130;2022-07-11T01:51:18;2.60;;;1.00;;
18001;SDS011;9126;48.160;17.130;2022-07-11T01:53:45;2.75;;;1.20;;
18001;SDS011;9126;48.160;17.130;2022-07-11T01:56:12;4.60;;;1.00;;
18001;SDS011;9126;48.160;17.130;2022-07-11T01:58:42;1.90;;;0.90;;
18001;SDS011;9126;48.160;17.130;2022-07-11T02:01:10;4.17;;;1.20;;
18001;SDS011;9126;48.160;17.130;2022-07-11T02:03:37;2.10;;;0.98;;
18001;SDS011;9126;48.160;17.130;2022-07-11T02:06:05;2.40;;;0.88;;
18001;SDS011;9126;48.160;17.130;2022-07-11T02:08:33;2.93;;;1.10;;
18001;SDS011;9126;48.160;17.130;2022-07-11T02:11:00;5.27;;;1.10;;
18001;SDS011;9126;48.160;17.130;2022-07-11T02:13:28;2.10;;;1.00;;
18001;SDS011;9126;48.160;17.130;2022-07-11T02:15:56;2.13;;;0.82;;
18001;SDS011;9126;48.160;17.130;2022-07-11T02:18:23;2.70;;;0.90;;
18001;SDS011;9126;48.160;17.130;2022-07-11T02:20:50;1.00;;;0.73;;
18001;SDS011;9126;48.160;17.130;2022-07-11T02:23:18;1.93;;;0.80;;
18001;SDS011;9126;48.160;17.130;2022-07-11T02:25:45;3.10;;;1.17;;
18001;SDS011;9126;48.160;17.130;2022-07-11T02:28:13;1.97;;;0.70;;
18001;SDS011;9126;48.160;17.130;2022-07-11T02:30:43;4.63;;;1.03;;
18001;SDS011;9126;48.160;17.130;2022-07-11T02:33:13;2.07;;;0.80;;
18001;SDS011;9126;48.160;17.130;2022-07-11T02:35:41;2.47;;;0.90;;
18001;SDS011;9126;48.160;17.130;2022-07-11T02:38:08;5.00;;;0.73;;
18001;SDS011;9126;48.160;17.130;2022-07-11T02:40:35;6.70;;;1.23;;
18001;SDS011;9126;48.160;17.130;2022-07-11T02:43:03;2.97;;;0.90;;
18001;SDS011;9126;48.160;17.130;2022-07-11T02:45:31;2.57;;;1.13;;
18001;SDS011;9126;48.160;17.130;2022-07-11T02:48:00;4.53;;;0.90;;
18001;SDS011;9126;48.160;17.130;2022-07-11T02:50:29;2.63;;;0.93;;
18001;SDS011;9126;48.160;17.130;2022-07-11T02:53:00;3.33;;;1.13;;
18001;SDS011;9126;48.160;17.130;2022-07-11T02:55:28;6.37;;;0.90;;
18001;SDS011;9126;48.160;17.130;2022-07-11T02:57:56;3.50;;;0.90;;
18001;SDS011;9126;48.160;17.130;2022-07-11T03:00:24;4.03;;;1.27;;
18001;SDS011;9126;48.160;17.130;2022-07-11T03:02:53;3.10;;;0.70;;
18001;SDS011;9126;48.160;17.130;2022-07-11T03:05:21;3.03;;;0.70;;
18001;SDS011;9126;48.160;17.130;2022-07-11T03:07:50;1.90;;;1.17;;
18001;SDS011;9126;48.160;17.130;2022-07-11T03:10:18;2.97;;;1.17;;
18001;SDS011;9126;48.160;17.130;2022-07-11T03:12:48;1.80;;;0.77;;
18001;SDS011;9126;48.160;17.130;2022-07-11T03:15:16;2.93;;;1.00;;
18001;SDS011;9126;48.160;17.130;2022-07-11T03:17:43;2.03;;;0.80;;
18001;SDS011;9126;48.160;17.130;2022-07-11T03:20:12;1.87;;;0.87;;
18001;SDS011;9126;48.160;17.130;2022-07-11T03:22:39;1.03;;;0.80;;
18001;SDS011;9126;48.160;17.130;2022-07-11T03:25:09;4.60;;;1.47;;
18001;SDS011;9126;48.160;17.130;2022-07-11T03:27:36;1.93;;;0.80;;
18001;SDS011;9126;48.160;17.130;2022-07-11T03:30:04;3.03;;;1.37;;
18001;SDS011;9126;48.160;17.130;2022-07-11T03:32:36;2.50;;;0.80;;
18001;SDS011;9126;48.160;17.130;2022-07-11T03:35:03;2.07;;;0.90;;
18001;SDS011;9126;48.160;17.130;2022-07-11T03:37:49;3.33;;;0.90;;
18001;SDS011;9126;48.160;17.130;2022-07-11T03:40:19;2.43;;;1.13;;
18001;SDS011;9126;48.160;17.130;2022-07-11T03:42:47;1.77;;;0.90;;
18001;SDS011;9126;48.160;17.130;2022-07-11T03:45:14;2.07;;;1.10;;
18001;SDS011;9126;48.160;17.130;2022-07-11T03:47:43;1.67;;;0.90;;
18001;SDS011;9126;48.160;17.130;2022-07-11T03:50:12;1.67;;;0.67;;
18001;SDS011;9126;48.160;17.130;2022-07-11T03:52:40;2.23;;;0.83;;
18001;SDS011;9126;48.160;17.130;2022-07-11T03:55:07;2.37;;;0.83;;
18001;SDS011;9126;48.160;17.130;2022-07-11T03:57:36;1.90;;;0.80;;
18001;SDS011;9126;48.160;17.130;2022-07-11T04:00:04;1.87;;;0.90;;
18001;SDS011;9126;48.160;17.130;2022-07-11T04:02:33;4.03;;;0.83;;
18001;SDS011;9126;48.160;17.130;2022-07-11T04:05:00;2.87;;;0.80;;
18001;SDS011;9126;48.160;17.130;2022-07-11T04:07:29;3.80;;;0.90;;
18001;SDS011;9126;48.160;17.130;2022-07-11T04:09:56;0.97;;;0.80;;
18001;SDS011;9126;48.160;17.130;2022-07-11T04:12:23;2.22;;;0.85;;
18001;SDS011;9126;48.160;17.130;2022-07-11T04:14:52;3.55;;;0.70;;
18001;SDS011;9126;48.160;17.130;2022-07-11T04:17:19;2.30;;;0.73;;
18001;SDS011;9126;48.160;17.130;2022-07-11T04:19:46;4.07;;;0.93;;
18001;SDS011;9126;48.160;17.130;2022-07-11T04:22:13;2.30;;;0.90;;
18001;SDS011;9126;48.160;17.130;2022-07-11T04:24:40;2.88;;;0.88;;
18001;SDS011;9126;48.160;17.130;2022-07-11T04:27:11;1.50;;;1.10;;
18001;SDS011;9126;48.160;17.130;2022-07-11T04:29:39;1.50;;;0.90;;
18001;SDS011;9126;48.160;17.130;2022-07-11T04:32:08;2.87;;;0.90;;
18001;SDS011;9126;48.160;17.130;2022-07-11T04:34:35;4.25;;;1.10;;
18001;SDS011;9126;48.160;17.130;2022-07-11T04:37:05;3.08;;;1.00;;
18001;SDS011;9126;48.160;17.130;2022-07-11T04:39:33;1.60;;;0.90;;
18001;SDS011;9126;48.160;17.130;2022-07-11T04:42:00;1.50;;;1.00;;
18001;SDS011;9126;48.160;17.130;2022-07-11T04:44:28;3.67;;;0.93;;
18001;SDS011;9126;48.160;17.130;2022-07-11T04:46:56;3.13;;;0.93;;
18001;SDS011;9126;48.160;17.130;2022-07-11T04:49:25;3.03;;;1.10;;
18001;SDS011;9126;48.160;17.130;2022-07-11T04:51:53;2.95;;;1.10;;
18001;SDS011;9126;48.160;17.130;2022-07-11T04:54:22;2.25;;;1.02;;
18001;SDS011;9126;48.160;17.130;2022-07-11T04:56:49;3.05;;;0.90;;
18001;SDS011;9126;48.160;17.130;2022-07-11T04:59:17;2.55;;;1.00;;
18001;SDS011;9126;48.160;17.130;2022-07-11T05:01:48;2.30;;;0.88;;
18001;SDS011;9126;48.160;17.130;2022-07-11T05:04:16;2.20;;;0.90;;
18001;SDS011;9126;48.160;17.130;2022-07-11T05:06:45;2.45;;;1.13;;
18001;SDS011;9126;48.160;17.130;2022-07-11T05:09:12;2.42;;;0.82;;
18001;SDS011;9126;48.160;17.130;2022-07-11T05:11:39;1.75;;;0.75;;
18001;SDS011;9126;48.160;17.130;2022-07-11T05:14:10;2.55;;;0.70;;
18001;SDS011;9126;48.160;17.130;2022-07-11T05:16:38;2.60;;;1.00;;
18001;SDS011;9126;48.160;17.130;2022-07-11T05:19:05;1.60;;;0.98;;
18001;SDS011;9126;48.160;17.130;2022-07-11T05:21:32;2.63;;;0.75;;
18001;SDS011;9126;48.160;17.130;2022-07-11T05:24:02;1.63;;;0.93;;
18001;SDS011;9126;48.160;17.130;2022-07-11T05:26:30;1.92;;;0.80;;
18001;SDS011;9126;48.160;17.130;2022-07-11T05:28:57;1.20;;;0.70;;
18001;SDS011;9126;48.160;17.130;2022-07-11T05:31:26;3.65;;;1.08;;
18001;SDS011;9126;48.160;17.130;2022-07-11T05:33:53;1.95;;;0.80;;
18001;SDS011;9126;48.160;17.130;2022-07-11T05:36:20;2.08;;;0.80;;
18001;SDS011;9126;48.160;17.130;2022-07-11T05:38:47;0.75;;;0.63;;
18001;SDS011;9126;48.160;17.130;2022-07-11T05:41:16;2.92;;;0.80;;
18001;SDS011;9126;48.160;17.130;2022-07-11T05:43:43;3.45;;;0.85;;
18001;SDS011;9126;48.160;17.130;2022-07-11T05:46:10;3.40;;;0.90;;
18001;SDS011;9126;48.160;17.130;2022-07-11T05:48:37;2.10;;;0.75;;
18001;SDS011;9126;48.160;17.130;2022-07-11T05:51:05;2.70;;;0.80;;
18001;SDS011;9126;48.160;17.130;2022-07-11T05:53:32;1.85;;;0.80;;
18001;SDS011;9126;48.160;17.130;2022-07-11T05:55:59;3.10;;;0.98;;
18001;SDS011;9126;48.160;17.130;2022-07-11T05:58:32;0.75;;;0.60;;
18001;SDS011;9126;48.160;17.130;2022-07-11T06:00:59;3.63;;;1.00;;
18001;SDS011;9126;48.160;17.130;2022-07-11T06:03:28;1.98;;;0.80;;
18001;SDS011;9126;48.160;17.130;2022-07-11T06:05:55;2.97;;;0.90;;
18001;SDS011;9126;48.160;17.130;2022-07-11T06:08:23;2.65;;;0.88;;
18001;SDS011;9126;48.160;17.130;2022-07-11T06:11:09;0.68;;;0.60;;
18001;SDS011;9126;48.160;17.130;2022-07-11T06:13:39;3.63;;;0.80;;
18001;SDS011;9126;48.160;17.130;2022-07-11T06:16:07;2.75;;;0.85;;
18001;SDS011;9126;48.160;17.130;2022-07-11T06:18:37;3.78;;;1.10;;
18001;SDS011;9126;48.160;17.130;2022-07-11T06:21:08;1.50;;;0.90;;
18001;SDS011;9126;48.160;17.130;2022-07-11T06:23:39;2.63;;;0.50;;
18001;SDS011;9126;48.160;17.130;2022-07-11T06:26:07;2.10;;;0.82;;
18001;SDS011;9126;48.160;17.130;2022-07-11T06:28:36;2.60;;;0.63;;
18001;SDS011;9126;48.160;17.130;2022-07-11T06:31:05;1.92;;;0.80;;
18001;SDS011;9126;48.160;17.130;2022-07-11T06:33:32;2.20;;;0.60;;
18001;SDS011;9126;48.160;17.130;2022-07-11T06:36:03;3.22;;;0.60;;
18001;SDS011;9126;48.160;17.130;2022-07-11T06:38:32;2.45;;;0.93;;
18001;SDS011;9126;48.160;17.130;2022-07-11T06:41:00;1.50;;;0.90;;
18001;SDS011;9126;48.160;17.130;2022-07-11T06:43:28;2.03;;;1.00;;
18001;SDS011;9126;48.160;17.130;2022-07-11T06:45:57;4.18;;;0.90;;
18001;SDS011;9126;48.160;17.130;2022-07-11T06:48:27;3.38;;;0.75;;
18001;SDS011;9126;48.160;17.130;2022-07-11T06:50:55;1.90;;;0.85;;
18001;SDS011;9126;48.160;17.130;2022-07-11T06:53:22;1.23;;;0.80;;
18001;SDS011;9126;48.160;17.130;2022-07-11T06:55:49;2.55;;;0.70;;
18001;SDS011;9126;48.160;17.130;2022-07-11T06:58:16;1.95;;;0.73;;
18001;SDS011;9126;48.160;17.130;2022-07-11T07:00:59;8.02;;;0.90;;
18001;SDS011;9126;48.160;17.130;2022-07-11T07:03:27;2.47;;;1.05;;
18001;SDS011;9126;48.160;17.130;2022-07-11T07:05:55;2.95;;;1.02;;
18001;SDS011;9126;48.160;17.130;2022-07-11T07:08:23;1.15;;;0.80;;
18001;SDS011;9126;48.160;17.130;2022-07-11T07:10:54;1.48;;;0.90;;
18001;SDS011;9126;48.160;17.130;2022-07-11T07:13:24;7.60;;;1.20;;
18001;SDS011;9126;48.160;17.130;2022-07-11T07:15:54;2.85;;;1.25;;
18001;SDS011;9126;48.160;17.130;2022-07-11T07:18:24;1.08;;;0.80;;
18001;SDS011;9126;48.160;17.130;2022-07-11T07:20:52;1.65;;;0.82;;
18001;SDS011;9126;48.160;17.130;2022-07-11T07:23:20;3.90;;;1.05;;
18001;SDS011;9126;48.160;17.130;2022-07-11T07:25:48;1.60;;;0.68;;
18001;SDS011;9126;48.160;17.130;2022-07-11T07:28:16;3.03;;;1.08;;
18001;SDS011;9126;48.160;17.130;2022-07-11T07:30:43;2.85;;;0.60;;
18001;SDS011;9126;48.160;17.130;2022-07-11T07:33:10;3.92;;;1.10;;
18001;SDS011;9126;48.160;17.130;2022-07-11T07:35:40;1.85;;;0.95;;
18001;SDS011;9126;48.160;17.130;2022-07-11T07:38:09;3.30;;;1.10;;
18001;SDS011;9126;48.160;17.130;2022-07-11T07:40:36;3.20;;;1.10;;
18001;SDS011;9126;48.160;17.130;2022-07-11T07:43:03;1.20;;;0.82;;
18001;SDS011;9126;48.160;17.130;2022-07-11T07:45:34;1.73;;;0.82;;
18001;SDS011;9126;48.160;17.130;2022-07-11T07:48:16;3.40;;;0.90;;
18001;SDS011;9126;48.160;17.130;2022-07-11T07:50:51;3.20;;;1.08;;
18001;SDS011;9126;48.160;17.130;2022-07-11T07:53:19;5.82;;;1.92;;
18001;SDS011;9126;48.160;17.130;2022-07-11T07:55:48;5.20;;;1.08;;
18001;SDS011;9126;48.160;17.130;2022-07-11T07:58:17;2.72;;;1.13;;
18001;SDS011;9126;48.160;17.130;2022-07-11T08:00:45;11.52;;;1.20;;
18001;SDS011;9126;48.160;17.130;2022-07-11T08:03:31;12.57;;;1.63;;
18001;SDS011;9126;48.160;17.130;2022-07-11T08:06:00;2.47;;;1.00;;
18001;SDS011;9126;48.160;17.130;2022-07-11T08:08:27;1.83;;;0.80;;
18001;SDS011;9126;48.160;17.130;2022-07-11T08:10:55;2.63;;;1.17;;
18001;SDS011;9126;48.160;17.130;2022-07-11T08:13:26;3.78;;;1.30;;
18001;SDS011;9126;48.160;17.130;2022-07-11T08:15:54;7.15;;;1.70;;
18001;SDS011;9126;48.160;17.130;2022-07-11T08:18:23;4.55;;;1.20;;
18001;SDS011;9126;48.160;17.130;2022-07-11T08:20:53;3.58;;;1.08;;
18001;SDS011;9126;48.160;17.130;2022-07-11T08:23:23;3.38;;;1.20;;
18001;SDS011;9126;48.160;17.130;2022-07-11T08:25:50;3.30;;;1.25;;
18001;SDS011;9126;48.160;17.130;2022-07-11T08:28:17;1.88;;;0.93;;
18001;SDS011;9126;48.160;17.130;2022-07-11T08:30:45;4.88;;;1.10;;
18001;SDS011;9126;48.160;17.130;2022-07-11T08:33:12;7.15;;;1.50;;
18001;SDS011;9126;48.160;17.130;2022-07-11T08:35:39;5.75;;;1.73;;
18001;SDS011;9126;48.160;17.130;2022-07-11T08:38:07;3.83;;;1.38;;
18001;SDS011;9126;48.160;17.130;2022-07-11T08:40:38;6.57;;;1.30;;
18001;SDS011;9126;48.160;17.130;2022-07-11T08:43:13;3.30;;;1.02;;
18001;SDS011;9126;48.160;17.130;2022-07-11T08:45:41;3.10;;;1.08;;
18001;SDS011;9126;48.160;17.130;2022-07-11T08:48:09;2.13;;;1.02;;
18001;SDS011;9126;48.160;17.130;2022-07-11T08:50:36;4.03;;;1.10;;
18001;SDS011;9126;48.160;17.130;2022-07-11T08:53:04;3.30;;;1.02;;
18001;SDS011;9126;48.160;17.130;2022-07-11T08:55:31;4.22;;;1.15;;
18001;SDS011;9126;48.160;17.130;2022-07-11T08:58:00;2.17;;;1.25;;
18001;SDS011;9126;48.160;17.130;2022-07-11T09:00:28;9.43;;;2.35;;
18001;SDS011;9126;48.160;17.130;2022-07-11T09:02:55;6.20;;;1.35;;
18001;SDS011;9126;48.160;17.130;2022-07-11T09:05:24;3.03;;;1.02;;
18001;SDS011;9126;48.160;17.130;2022-07-11T09:07:52;3.33;;;1.35;;
18001;SDS011;9126;48.160;17.130;2022-07-11T09:10:19;3.22;;;1.30;;
18001;SDS011;9126;48.160;17.130;2022-07-11T09:13:01;2.42;;;1.48;;
18001;SDS011;9126;48.160;17.130;2022-07-11T09:15:32;2.05;;;1.10;;
18001;SDS011;9126;48.160;17.130;2022-07-11T09:18:00;4.70;;;1.48;;
18001;SDS011;9126;48.160;17.130;2022-07-11T09:20:29;4.57;;;1.55;;
18001;SDS011;9126;48.160;17.130;2022-07-11T09:23:36;9.57;;;2.00;;
18001;SDS011;9126;48.160;17.130;2022-07-11T09:26:23;5.32;;;1.58;;
18001;SDS011;9126;48.160;17.130;2022-07-11T09:28:59;3.78;;;1.40;;
18001;SDS011;9126;48.160;17.130;2022-07-11T09:31:30;2.95;;;1.25;;
18001;SDS011;9126;48.160;17.130;2022-07-11T09:34:05;3.50;;;1.60;;
18001;SDS011;9126;48.160;17.130;2022-07-11T09:36:34;3.75;;;1.40;;
18001;SDS011;9126;48.160;17.130;2022-07-11T09:39:07;5.15;;;1.33;;
18001;SDS011;9126;48.160;17.130;2022-07-11T09:41:36;5.30;;;1.67;;
18001;SDS011;9126;48.160;17.130;2022-07-11T09:44:08;3.35;;;1.40;;
18001;SDS011;9126;48.160;17.130;2022-07-11T09:46:37;5.40;;;1.58;;
18001;SDS011;9126;48.160;17.130;2022-07-11T09:49:05;4.88;;;1.65;;
18001;SDS011;9126;48.160;17.130;2022-07-11T09:51:34;16.38;;;1.88;;
18001;SDS011;9126;48.160;17.130;2022-07-11T09:54:03;20.77;;;2.55;;
18001;SDS011;9126;48.160;17.130;2022-07-11T09:56:39;16.20;;;2.10;;
18001;SDS011;9126;48.160;17.130;2022-07-11T09:59:18;9.05;;;1.45;;
18001;SDS011;9126;48.160;17.130;2022-07-11T10:01:45;32.85;;;2.85;;
18001;SDS011;9126;48.160;17.130;2022-07-11T10:04:12;9.73;;;1.55;;
18001;SDS011;9126;48.160;17.130;2022-07-11T10:06:39;5.65;;;1.75;;
18001;SDS011;9126;48.160;17.130;2022-07-11T10:09:06;10.35;;;2.40;;
18001;SDS011;9126;48.160;17.130;2022-07-11T10:11:34;7.20;;;1.98;;
18001;SDS011;9126;48.160;17.130;2022-07-11T10:14:03;20.58;;;2.67;;
18001;SDS011;9126;48.160;17.130;2022-07-11T10:16:40;17.88;;;2.08;;
18001;SDS011;9126;48.160;17.130;2022-07-11T10:19:16;5.82;;;1.90;;
18001;SDS011;9126;48.160;17.130;2022-07-11T10:22:04;4.18;;;1.50;;
18001;SDS011;9126;48.160;17.130;2022-07-11T10:25:09;3.55;;;1.30;;
18001;SDS011;9126;48.160;17.130;2022-07-11T10:27:48;2.45;;;1.10;;
18001;SDS011;9126;48.160;17.130;2022-07-11T10:30:45;8.88;;;1.90;;
18001;SDS011;9126;48.160;17.130;2022-07-11T10:33:15;4.68;;;1.65;;
18001;SDS011;9126;48.160;17.130;2022-07-11T10:35:44;3.63;;;1.38;;
18001;SDS011;9126;48.160;17.130;2022-07-11T10:38:13;6.40;;;1.60;;
18001;SDS011;9126;48.160;17.130;2022-07-11T10:40:42;3.47;;;1.45;;
18001;SDS011;9126;48.160;17.130;2022-07-11T10:43:11;4.80;;;1.30;;
18001;SDS011;9126;48.160;17.130;2022-07-11T10:45:54;3.08;;;1.10;;
18001;SDS011;9126;48.160;17.130;2022-07-11T10:48:25;4.00;;;1.55;;
18001;SDS011;9126;48.160;17.130;2022-07-11T10:50:54;2.55;;;1.20;;
18001;SDS011;9126;48.160;17.130;2022-07-11T10:53:40;5.88;;;1.45;;
18001;SDS011;9126;48.160;17.130;2022-07-11T10:56:17;2.65;;;1.50;;
18001;SDS011;9126;48.160;17.130;2022-07-11T10:59:14;4.28;;;1.30;;
18001;SDS011;9126;48.160;17.130;2022-07-11T11:04:45;2.20;;;1.20;;
18001;SDS011;9126;48.160;17.130;2022-07-11T11:07:36;8.57;;;1.90;;
18001;SDS011;9126;48.160;17.130;2022-07-11T11:13:17;5.63;;;1.52;;
18001;SDS011;9126;48.160;17.130;2022-07-11T11:15:46;5.70;;;1.52;;
18001;SDS011;9126;48.160;17.130;2022-07-11T11:18:31;5.05;;;1.55;;
18001;SDS011;9126;48.160;17.130;2022-07-11T11:21:23;3.78;;;1.40;;
18001;SDS011;9126;48.160;17.130;2022-07-11T11:24:00;3.45;;;1.42;;
18001;SDS011;9126;48.160;17.130;2022-07-11T11:29:15;3.47;;;1.40;;
18001;SDS011;9126;48.160;17.130;2022-07-11T11:31:48;4.32;;;1.10;;
18001;SDS011;9126;48.160;17.130;2022-07-11T11:34:20;5.75;;;1.60;;
18001;SDS011;9126;48.160;17.130;2022-07-11T11:37:00;4.10;;;1.30;;
18001;SDS011;9126;48.160;17.130;2022-07-11T11:39:29;2.92;;;1.48;;
18001;SDS011;9126;48.160;17.130;2022-07-11T11:42:07;2.45;;;1.33;;
18001;SDS011;9126;48.160;17.130;2022-07-11T11:44:46;4.57;;;1.30;;
18001;SDS011;9126;48.160;17.130;2022-07-11T11:47:17;4.03;;;1.50;;
18001;SDS011;9126;48.160;17.130;2022-07-11T11:49:45;4.72;;;1.20;;
18001;SDS011;9126;48.160;17.130;2022-07-11T11:52:15;3.42;;;1.40;;
18001;SDS011;9126;48.160;17.130;2022-07-11T11:54:43;4.55;;;1.58;;
18001;SDS011;9126;48.160;17.130;2022-07-11T11:57:17;8.70;;;1.70;;
18001;SDS011;9126;48.160;17.130;2022-07-11T11:59:48;3.38;;;1.42;;
18001;SDS011;9126;48.160;17.130;2022-07-11T12:02:26;4.93;;;1.30;;
18001;SDS011;9126;48.160;17.130;2022-07-11T12:04:55;2.58;;;1.27;;
18001;SDS011;9126;48.160;17.130;2022-07-11T12:07:24;4.50;;;1.10;;
18001;SDS011;9126;48.160;17.130;2022-07-11T12:09:53;4.68;;;1.25;;
18001;SDS011;9126;48.160;17.130;2022-07-11T12:12:23;3.65;;;1.25;;
18001;SDS011;9126;48.160;17.130;2022-07-11T12:17:57;3.28;;;1.30;;
18001;SDS011;9126;48.160;17.130;2022-07-11T12:20:42;3.90;;;1.20;;
18001;SDS011;9126;48.160;17.130;2022-07-11T12:23:14;3.58;;;1.08;;
18001;SDS011;9126;48.160;17.130;2022-07-11T12:25:47;4.07;;;1.40;;
18001;SDS011;9126;48.160;17.130;2022-07-11T12:28:21;4.38;;;1.50;;
18001;SDS011;9126;48.160;17.130;2022-07-11T12:30:53;4.05;;;1.10;;
18001;SDS011;9126;48.160;17.130;2022-07-11T12:33:21;4.18;;;1.35;;
18001;SDS011;9126;48.160;17.130;2022-07-11T12:35:53;5.40;;;1.40;;
18001;SDS011;9126;48.160;17.130;2022-07-11T12:38:24;7.43;;;1.40;;
18001;SDS011;9126;48.160;17.130;2022-07-11T12:43:40;3.33;;;1.63;;
18001;SDS011;9126;48.160;17.130;2022-07-11T12:46:28;2.80;;;1.30;;
18001;SDS011;9126;48.160;17.130;2022-07-11T12:48:56;4.05;;;1.20;;
18001;SDS011;9126;48.160;17.130;2022-07-11T12:51:26;4.38;;;1.27;;
18001;SDS011;9126;48.160;17.130;2022-07-11T12:54:09;5.00;;;1.17;;
18001;SDS011;9126;48.160;17.130;2022-07-11T12:56:38;2.78;;;1.30;;
18001;SDS011;9126;48.160;17.130;2022-07-11T12:59:17;3.25;;;1.20;;
18001;SDS011;9126;48.160;17.130;2022-07-11T13:01:58;3.65;;;0.80;;
18001;SDS011;9126;48.160;17.130;2022-07-11T13:04:29;4.47;;;1.40;;
18001;SDS011;9126;48.160;17.130;2022-07-11T13:10:15;2.65;;;1.50;;
18001;SDS011;9126;48.160;17.130;2022-07-11T13:12:47;3.28;;;1.20;;
18001;SDS011;9126;48.160;17.130;2022-07-11T13:15:18;2.08;;;0.90;;
18001;SDS011;9126;48.160;17.130;2022-07-11T13:17:47;4.40;;;1.10;;
18001;SDS011;9126;48.160;17.130;2022-07-11T13:20:17;3.42;;;1.27;;
18001;SDS011;9126;48.160;17.130;2022-07-11T13:22:49;2.50;;;0.90;;
18001;SDS011;9126;48.160;17.130;2022-07-11T13:25:18;3.92;;;1.10;;
18001;SDS011;9126;48.160;17.130;2022-07-11T13:27:52;2.58;;;0.95;;
18001;SDS011;9126;48.160;17.130;2022-07-11T13:30:21;3.33;;;1.20;;
18001;SDS011;9126;48.160;17.130;2022-07-11T13:32:56;2.63;;;0.82;;
18001;SDS011;9126;48.160;17.130;2022-07-11T13:35:24;3.63;;;1.00;;
18001;SDS011;9126;48.160;17.130;2022-07-11T13:37:53;2.47;;;1.17;;
18001;SDS011;9126;48.160;17.130;2022-07-11T13:40:23;3.45;;;1.30;;
18001;SDS011;9126;48.160;17.130;2022-07-11T13:42:51;2.75;;;1.13;;
18001;SDS011;9126;48.160;17.130;2022-07-11T13:45:20;7.20;;;1.20;;
18001;SDS011;9126;48.160;17.130;2022-07-11T13:47:50;4.13;;;1.30;;
18001;SDS011;9126;48.160;17.130;2022-07-11T13:50:17;2.15;;;1.00;;
18001;SDS011;9126;48.160;17.130;2022-07-11T13:52:46;2.88;;;1.02;;
18001;SDS011;9126;48.160;17.130;2022-07-11T13:55:14;5.05;;;1.60;;
18001;SDS011;9126;48.160;17.130;2022-07-11T13:57:44;7.53;;;1.45;;
18001;SDS011;9126;48.160;17.130;2022-07-11T14:00:12;3.83;;;1.23;;
18001;SDS011;9126;48.160;17.130;2022-07-11T14:02:41;3.47;;;1.23;;
18001;SDS011;9126;48.160;17.130;2022-07-11T14:05:08;4.10;;;1.50;;
18001;SDS011;9126;48.160;17.130;2022-07-11T14:07:36;3.17;;;1.20;;
18001;SDS011;9126;48.160;17.130;2022-07-11T14:10:05;2.95;;;0.95;;
18001;SDS011;9126;48.160;17.130;2022-07-11T14:12:32;1.77;;;1.20;;
18001;SDS011;9126;48.160;17.130;2022-07-11T14:15:02;2.75;;;1.08;;
18001;SDS011;9126;48.160;17.130;2022-07-11T14:17:30;3.58;;;1.00;;
18001;SDS011;9126;48.160;17.130;2022-07-11T14:19:57;4.90;;;1.27;;
18001;SDS011;9126;48.160;17.130;2022-07-11T14:22:26;1.70;;;1.13;;
18001;SDS011;9126;48.160;17.130;2022-07-11T14:24:53;3.00;;;1.00;;
18001;SDS011;9126;48.160;17.130;2022-07-11T14:27:21;4.57;;;1.02;;
18001;SDS011;9126;48.160;17.130;2022-07-11T14:29:51;2.00;;;1.00;;
18001;SDS011;9126;48.160;17.130;2022-07-11T14:32:20;7.50;;;1.60;;
18001;SDS011;9126;48.160;17.130;2022-07-11T14:34:47;2.22;;;0.90;;
18001;SDS011;9126;48.160;17.130;2022-07-11T14:37:22;1.17;;;0.85;;
18001;SDS011;9126;48.160;17.130;2022-07-11T14:39:56;2.40;;;1.25;;
18001;SDS011;9126;48.160;17.130;2022-07-11T14:42:23;2.63;;;0.93;;
18001;SDS011;9126;48.160;17.130;2022-07-11T14:44:51;2.65;;;0.85;;
18001;SDS011;9126;48.160;17.130;2022-07-11T14:47:20;3.35;;;0.80;;
18001;SDS011;9126;48.160;17.130;2022-07-11T14:49:47;1.75;;;0.82;;
18001;SDS011;9126;48.160;17.130;2022-07-11T14:52:14;2.17;;;1.20;;
18001;SDS011;9126;48.160;17.130;2022-07-11T14:54:42;4.13;;;0.85;;
18001;SDS011;9126;48.160;17.130;2022-07-11T14:57:09;2.75;;;0.93;;
18001;SDS011;9126;48.160;17.130;2022-07-11T14:59:38;4.50;;;1.02;;
18001;SDS011;9126;48.160;17.130;2022-07-11T15:02:06;2.60;;;1.10;;
18001;SDS011;9126;48.160;17.130;2022-07-11T15:04:42;2.58;;;1.08;;
18001;SDS011;9126;48.160;17.130;2022-07-11T15:07:09;2.30;;;0.93;;
18001;SDS011;9126;48.160;17.130;2022-07-11T15:09:53;3.60;;;0.90;;
18001;SDS011;9126;48.160;17.130;2022-07-11T15:12:38;2.85;;;0.90;;
18001;SDS011;9126;48.160;17.130;2022-07-11T15:15:08;2.35;;;1.05;;
18001;SDS011;9126;48.160;17.130;2022-07-11T15:17:36;4.70;;;1.10;;
18001;SDS011;9126;48.160;17.130;2022-07-11T15:20:10;2.90;;;1.20;;
18001;SDS011;9126;48.160;17.130;2022-07-11T15:22:39;3.55;;;1.08;;